Dades meteomassalio
Diari Summary for Gener 27, 2018 Units:  English    Metric   Both
« Previous Day
Next Day »
Diari Semanal Mensual Anual Personalitzat
  Maxima: Minima: Mijana:
Temperatura: TemperatureC °F 3.3 °F 6.6 °F
Rosada: DewpointC °F 0.7 °F 2.6 °F
Humitat: Humidity % 57 % 76 %
Velocitat del vent: WindSpeedKMH mph 0.0 mph 17.1 mph
Racha vent: WindSpeedGustKMH mph - -
Vent:- - NW
Pressio: PressurehPa in 1026.0 in -
Pluja: 0.0 in    
Historical Graphs
 
 
Tabular Data for Gener 27, 2018
Time Temperature Dew Point Pressure Wind Wind Speed Wind Gust Humidity Rainfall Rate (Hourly) solar Conditions
TemperatureC °F DewpointC °F PressurehPa in Calm     Humidity % HourlyPrecipMM in SolarRadiationWatts/m^2 W/m2 Conditions
00:02 5.0 °F 2.8 °F 1026.0 in NW 37.0 mph 37.0 mph 86 % 0.0 in 0.0 W/m2 RA
00:07 5.0 °F 2.8 °F 1026.3 in NNW 31.5 mph 31.5 mph 86 % 0.0 in 0.0 W/m2 CLR
00:12 5.0 °F 2.8 °F 1026.3 in NNW 31.5 mph 31.5 mph 86 % 0.0 in 0.0 W/m2 CLR
00:17 5.0 °F 2.8 °F 1026.3 in NNW 32.2 mph 32.2 mph 86 % 0.0 in 0.0 W/m2 CLR
00:22 5.0 °F 2.8 °F 1026.3 in NW 24.1 mph 24.1 mph 86 % 0.0 in 0.0 W/m2 CLR
00:27 5.0 °F 2.8 °F 1026.3 in NW 42.6 mph 42.6 mph 86 % 0.0 in 0.0 W/m2 CLR
00:32 5.0 °F 2.8 °F 1026.3 in North 40.7 mph 40.7 mph 86 % 0.0 in 0.0 W/m2 CLR
00:37 5.0 °F 2.8 °F 1026.3 in NW 33.3 mph 33.3 mph 86 % 0.0 in 0.0 W/m2 CLR
00:42 5.0 °F 2.8 °F 1026.3 in NW 31.5 mph 31.5 mph 86 % 0.0 in 0.0 W/m2 CLR
00:47 5.0 °F 2.7 °F 1026.3 in NW 38.6 mph 38.6 mph 85 % 0.0 in 0.0 W/m2 CLR
00:52 5.0 °F 2.7 °F 1026.3 in NNW 31.5 mph 31.5 mph 85 % 0.0 in 0.0 W/m2 CLR
00:57 5.0 °F 2.7 °F 1026.3 in NW 38.6 mph 38.6 mph 85 % 0.0 in 0.0 W/m2 CLR
01:02 5.0 °F 2.7 °F 1026.3 in NW 24.1 mph 24.1 mph 85 % 0.0 in 0.0 W/m2 CLR
01:07 5.0 °F 2.7 °F 1026.3 in NW 31.5 mph 31.5 mph 85 % 0.0 in 0.0 W/m2 CLR
01:12 5.0 °F 2.7 °F 1026.3 in NW 31.5 mph 31.5 mph 85 % 0.0 in 0.0 W/m2 CLR
01:17 5.0 °F 2.7 °F 1026.3 in NW 29.6 mph 29.6 mph 85 % 0.0 in 0.0 W/m2 CLR
01:22 5.0 °F 2.7 °F 1026.3 in NNW 35.4 mph 35.4 mph 85 % 0.0 in 0.0 W/m2 CLR
01:27 4.4 °F 2.2 °F 1026.3 in NNW 31.5 mph 31.5 mph 85 % 0.0 in 0.0 W/m2 CLR
01:32 4.4 °F 2.2 °F 1026.3 in NW 30.6 mph 30.6 mph 85 % 0.0 in 0.0 W/m2 CLR
01:37 5.0 °F 2.7 °F 1026.6 in NW 40.7 mph 40.7 mph 85 % 0.0 in 0.0 W/m2 CLR
01:42 5.0 °F 2.7 °F 1026.3 in NNW 37.0 mph 37.0 mph 85 % 0.0 in 0.0 W/m2 CLR
01:47 4.4 °F 2.0 °F 1026.6 in NW 31.5 mph 31.5 mph 84 % 0.0 in 0.0 W/m2 CLR
01:52 4.4 °F 2.2 °F 1026.6 in NW 35.2 mph 35.2 mph 85 % 0.0 in 0.0 W/m2 CLR
01:57 4.4 °F 2.0 °F 1026.6 in NW 29.6 mph 29.6 mph 84 % 0.0 in 0.0 W/m2 CLR
02:02 4.4 °F 2.2 °F 1026.6 in WNW 31.5 mph 31.5 mph 85 % 0.0 in 0.0 W/m2 CLR
02:07 4.4 °F 2.2 °F 1026.6 in NW 29.6 mph 29.6 mph 85 % 0.0 in 0.0 W/m2 CLR
02:12 4.4 °F 2.2 °F 1027.0 in NW 31.5 mph 31.5 mph 85 % 0.0 in 0.0 W/m2 CLR
02:17 4.4 °F 2.2 °F 1027.0 in NW 31.5 mph 31.5 mph 85 % 0.0 in 0.0 W/m2 CLR
02:22 4.4 °F 2.2 °F 1027.0 in NW 31.5 mph 31.5 mph 85 % 0.0 in 0.0 W/m2 CLR
02:27 4.4 °F 2.2 °F 1027.0 in NW 29.6 mph 29.6 mph 85 % 0.0 in 0.0 W/m2 CLR
02:32 4.4 °F 2.2 °F 1027.0 in NW 29.6 mph 29.6 mph 85 % 0.0 in 0.0 W/m2 CLR
02:37 4.4 °F 2.2 °F 1027.0 in NW 27.4 mph 27.4 mph 85 % 0.0 in 0.0 W/m2 CLR
02:42 4.4 °F 2.0 °F 1027.0 in NW 24.1 mph 24.1 mph 84 % 0.0 in 0.0 W/m2 CLR
02:47 4.4 °F 2.0 °F 1027.0 in NW 27.8 mph 27.8 mph 84 % 0.0 in 0.0 W/m2 CLR
02:52 4.4 °F 2.0 °F 1027.0 in West 27.8 mph 27.8 mph 84 % 0.0 in 0.0 W/m2 CLR
02:57 4.4 °F 2.0 °F 1027.0 in NW 20.9 mph 20.9 mph 84 % 0.0 in 0.0 W/m2 CLR
03:02 4.4 °F 2.0 °F 1027.0 in NW 24.1 mph 24.1 mph 84 % 0.0 in 0.0 W/m2 CLR
03:07 4.4 °F 2.0 °F 1027.0 in WNW 22.5 mph 22.5 mph 84 % 0.0 in 0.0 W/m2 CLR
03:12 4.4 °F 2.0 °F 1027.0 in NW 29.6 mph 29.6 mph 84 % 0.0 in 0.0 W/m2 CLR
03:17 4.4 °F 2.2 °F 1027.0 in NNW 31.5 mph 31.5 mph 85 % 0.0 in 0.0 W/m2 CLR
03:22 4.4 °F 2.0 °F 1027.0 in NW 33.3 mph 33.3 mph 84 % 0.0 in 0.0 W/m2 CLR
03:27 4.4 °F 2.0 °F 1027.0 in NW 24.1 mph 24.1 mph 84 % 0.0 in 0.0 W/m2 CLR
03:32 4.4 °F 2.2 °F 1027.0 in NW 22.2 mph 22.2 mph 85 % 0.0 in 0.0 W/m2 CLR
03:37 4.4 °F 2.2 °F 1027.0 in NW 25.9 mph 25.9 mph 85 % 0.0 in 0.0 W/m2 CLR
03:42 4.4 °F 2.2 °F 1027.0 in NW 31.5 mph 31.5 mph 85 % 0.0 in 0.0 W/m2 CLR
03:47 4.4 °F 2.2 °F 1027.0 in NW 27.4 mph 27.4 mph 85 % 0.0 in 0.0 W/m2 CLR
03:52 4.4 °F 2.0 °F 1027.0 in WNW 24.1 mph 24.1 mph 84 % 0.0 in 0.0 W/m2 CLR
03:57 4.4 °F 2.0 °F 1027.0 in NW 25.9 mph 25.9 mph 84 % 0.0 in 0.0 W/m2 CLR
04:02 4.4 °F 2.2 °F 1027.0 in WNW 27.4 mph 27.4 mph 85 % 0.0 in 0.0 W/m2 CLR
04:07 4.4 °F 2.0 °F 1027.0 in NW 25.9 mph 25.9 mph 84 % 0.0 in 0.0 W/m2 CLR
04:12 4.4 °F 2.0 °F 1027.0 in NW 29.6 mph 29.6 mph 84 % 0.0 in 0.0 W/m2 CLR
04:17 4.4 °F 2.2 °F 1027.0 in NNW 31.5 mph 31.5 mph 85 % 0.0 in 0.0 W/m2 CLR
04:22 4.4 °F 2.2 °F 1027.0 in NNW 31.5 mph 31.5 mph 85 % 0.0 in 0.0 W/m2 CLR
04:27 4.4 °F 2.2 °F 1027.0 in NW 38.9 mph 38.9 mph 85 % 0.0 in 0.0 W/m2 CLR
04:32 4.4 °F 2.2 °F 1027.0 in NW 35.2 mph 35.2 mph 85 % 0.0 in 0.0 W/m2 CLR
04:37 4.4 °F 2.2 °F 1027.0 in NW 31.5 mph 31.5 mph 85 % 0.0 in 0.0 W/m2 CLR
04:42 4.4 °F 2.2 °F 1027.3 in NW 31.5 mph 31.5 mph 85 % 0.0 in 0.0 W/m2 CLR
04:47 4.4 °F 2.2 °F 1027.3 in WNW 35.2 mph 35.2 mph 85 % 0.0 in 0.0 W/m2 CLR
04:52 4.4 °F 2.2 °F 1027.3 in NW 27.8 mph 27.8 mph 85 % 0.0 in 0.0 W/m2 CLR
04:58 4.4 °F 2.2 °F 1027.3 in NW 31.5 mph 31.5 mph 85 % 0.0 in 0.0 W/m2 CLR
05:03 4.4 °F 2.2 °F 1027.3 in NW 29.6 mph 29.6 mph 85 % 0.0 in 0.0 W/m2 CLR
05:08 4.4 °F 2.2 °F 1027.3 in NW 37.0 mph 37.0 mph 85 % 0.0 in 0.0 W/m2 CLR
05:13 4.4 °F 2.2 °F 1027.3 in WNW 31.5 mph 31.5 mph 85 % 0.0 in 0.0 W/m2 CLR
05:18 4.4 °F 2.2 °F 1027.3 in WNW 29.6 mph 29.6 mph 85 % 0.0 in 0.0 W/m2 CLR
05:23 4.4 °F 2.2 °F 1027.7 in NW 25.9 mph 25.9 mph 85 % 0.0 in 0.0 W/m2 CLR
05:28 4.4 °F 2.2 °F 1027.7 in NW 31.5 mph 31.5 mph 85 % 0.0 in 0.0 W/m2 CLR
05:33 4.4 °F 2.0 °F 1027.7 in WNW 33.3 mph 33.3 mph 84 % 0.0 in 0.0 W/m2 CLR
05:38 4.4 °F 2.0 °F 1027.7 in WNW 22.2 mph 22.2 mph 84 % 0.0 in 0.0 W/m2 CLR
05:43 4.4 °F 2.0 °F 1027.7 in WNW 18.5 mph 18.5 mph 84 % 0.0 in 0.0 W/m2 CLR
05:48 4.4 °F 2.0 °F 1027.7 in NW 24.1 mph 24.1 mph 84 % 0.0 in 0.0 W/m2 CLR
05:53 4.4 °F 2.0 °F 1027.7 in NW 22.2 mph 22.2 mph 84 % 0.0 in 0.0 W/m2 CLR
05:58 4.4 °F 2.0 °F 1027.7 in NW 22.5 mph 22.5 mph 84 % 0.0 in 0.0 W/m2 CLR
06:03 4.4 °F 2.0 °F 1027.7 in NW 24.1 mph 24.1 mph 84 % 0.0 in 0.0 W/m2 CLR
06:08 4.4 °F 2.0 °F 1027.7 in WNW 22.2 mph 22.2 mph 84 % 0.0 in 0.0 W/m2 CLR
06:13 4.4 °F 2.0 °F 1027.7 in WNW 27.8 mph 27.8 mph 84 % 0.0 in 0.0 W/m2 CLR
06:18 4.4 °F 2.0 °F 1028.0 in WNW 24.1 mph 24.1 mph 84 % 0.0 in 0.0 W/m2 CLR
06:23 4.4 °F 2.0 °F 1028.0 in NW 24.1 mph 24.1 mph 84 % 0.0 in 0.0 W/m2 CLR
06:28 4.4 °F 2.0 °F 1027.7 in WNW 24.1 mph 24.1 mph 84 % 0.0 in 0.0 W/m2 CLR
06:33 4.4 °F 2.0 °F 1028.0 in WNW 25.9 mph 25.9 mph 84 % 0.0 in 0.0 W/m2 CLR
06:38 4.4 °F 2.0 °F 1028.0 in NW 18.5 mph 18.5 mph 84 % 0.0 in 0.0 W/m2 CLR
06:43 3.9 °F 1.3 °F 1028.0 in WNW 16.1 mph 16.1 mph 83 % 0.0 in 0.0 W/m2 CLR
06:48 3.9 °F 1.3 °F 1028.0 in WNW 24.1 mph 24.1 mph 83 % 0.0 in 0.0 W/m2 CLR
06:53 3.9 °F 1.4 °F 1028.0 in West 18.5 mph 18.5 mph 84 % 0.0 in 0.0 W/m2 CLR
06:58 3.9 °F 1.4 °F 1028.0 in NW 16.7 mph 16.7 mph 84 % 0.0 in 0.0 W/m2 CLR
07:03 3.9 °F 1.4 °F 1028.3 in NW 20.4 mph 20.4 mph 84 % 0.0 in 0.0 W/m2 CLR
07:08 3.9 °F 1.4 °F 1028.0 in NW 16.1 mph 16.1 mph 84 % 0.0 in 0.0 W/m2 CLR
07:13 3.9 °F 1.4 °F 1028.0 in WNW 22.2 mph 22.2 mph 84 % 0.0 in 0.0 W/m2 CLR
07:18 3.9 °F 1.4 °F 1028.3 in ESE 14.8 mph 14.8 mph 84 % 0.0 in 0.0 W/m2 CLR
07:23 3.9 °F 1.4 °F 1028.3 in ESE 14.8 mph 14.8 mph 84 % 0.0 in 0.0 W/m2 CLR
07:28 3.9 °F 1.4 °F 1028.3 in NW 16.7 mph 16.7 mph 84 % 0.0 in 0.0 W/m2 CLR
07:33 3.9 °F 1.4 °F 1028.7 in ESE 20.9 mph 20.9 mph 84 % 0.0 in 0.0 W/m2 CLR
07:38 3.9 °F 1.4 °F 1028.7 in ESE 22.2 mph 22.2 mph 84 % 0.0 in 0.0 W/m2 CLR
07:43 3.3 °F 0.9 °F 1029.0 in NW 14.8 mph 14.8 mph 84 % 0.0 in 0.0 W/m2 CLR
07:48 3.9 °F 1.4 °F 1029.0 in NW 9.7 mph 9.7 mph 84 % 0.0 in 0.0 W/m2 CLR
07:53 3.3 °F 0.9 °F 1029.3 in ESE 18.5 mph 18.5 mph 84 % 0.0 in 0.0 W/m2 CLR
07:58 3.3 °F 0.9 °F 1029.3 in NW 18.5 mph 18.5 mph 84 % 0.0 in 0.0 W/m2 CLR
08:03 3.3 °F 0.7 °F 1029.3 in NW 18.5 mph 18.5 mph 83 % 0.0 in 0.0 W/m2 CLR
08:08 3.9 °F 1.3 °F 1029.0 in NW 24.1 mph 24.1 mph 83 % 0.0 in 0.0 W/m2 OVC
08:13 3.9 °F 1.3 °F 1029.0 in ESE 25.9 mph 25.9 mph 83 % 0.0 in 0.0 W/m2 OVC
08:18 3.9 °F 1.3 °F 1029.0 in NW 25.9 mph 25.9 mph 83 % 0.0 in 5.0 W/m2 OVC
08:23 3.3 °F 0.7 °F 1029.0 in ESE 24.1 mph 24.1 mph 83 % 0.0 in 7.0 W/m2 OVC
08:28 3.9 °F 1.3 °F 1029.3 in ESE 24.1 mph 24.1 mph 83 % 0.0 in 9.0 W/m2 BKN
08:33 3.9 °F 1.3 °F 1029.3 in NNW 27.8 mph 27.8 mph 83 % 0.0 in 11.0 W/m2 BKN
08:38 3.9 °F 1.3 °F 1029.3 in ESE 25.9 mph 25.9 mph 83 % 0.0 in 14.0 W/m2 BKN
08:43 3.9 °F 1.3 °F 1029.3 in ESE 24.1 mph 24.1 mph 83 % 0.0 in 18.0 W/m2 BKN
08:48 3.9 °F 1.3 °F 1029.7 in NW 14.8 mph 14.8 mph 83 % 0.0 in 25.0 W/m2 BKN
08:53 3.9 °F 1.3 °F 1029.7 in ESE 18.5 mph 18.5 mph 83 % 0.0 in 33.0 W/m2 BKN
08:58 3.9 °F 1.3 °F 1029.7 in ESE 16.7 mph 16.7 mph 83 % 0.0 in 44.0 W/m2 BKN
09:03 3.9 °F 1.3 °F 1030.0 in WNW 17.7 mph 17.7 mph 83 % 0.0 in 53.0 W/m2 SCT
09:08 3.9 °F 1.1 °F 1030.0 in WNW 22.2 mph 22.2 mph 82 % 0.0 in 70.0 W/m2 FEW
09:13 4.4 °F 1.6 °F 1030.0 in NW 24.1 mph 24.1 mph 82 % 0.0 in 83.0 W/m2 FEW
09:18 4.4 °F 1.6 °F 1030.0 in NW 22.5 mph 22.5 mph 82 % 0.0 in 97.0 W/m2 FEW
09:23 4.4 °F 1.4 °F 1030.0 in WNW 22.5 mph 22.5 mph 81 % 0.0 in 111.0 W/m2 CLR
09:28 5.0 °F 2.0 °F 1030.0 in NW 22.5 mph 22.5 mph 81 % 0.0 in 104.0 W/m2 CLR
09:33 5.0 °F 2.0 °F 1030.0 in NW 22.5 mph 22.5 mph 81 % 0.0 in 144.0 W/m2 CLR
09:38 5.0 °F 2.0 °F 1030.4 in WNW 24.1 mph 24.1 mph 81 % 0.0 in 160.0 W/m2 CLR
09:43 5.0 °F 1.8 °F 1030.4 in NW 24.1 mph 24.1 mph 80 % 0.0 in 114.0 W/m2 CLR
09:48 5.6 °F 2.4 °F 1030.4 in NW 18.5 mph 18.5 mph 80 % 0.0 in 151.0 W/m2 CLR
09:53 5.6 °F 2.4 °F 1030.4 in NW 20.4 mph 20.4 mph 80 % 0.0 in 127.0 W/m2 CLR
09:58 5.6 °F 2.4 °F 1030.4 in NW 22.2 mph 22.2 mph 80 % 0.0 in 250.0 W/m2 CLR
10:03 5.6 °F 2.4 °F 1030.4 in NW 22.2 mph 22.2 mph 80 % 0.0 in 283.0 W/m2 CLR
10:08 6.1 °F 2.9 °F 1030.4 in NW 25.9 mph 25.9 mph 80 % 0.0 in 306.0 W/m2 CLR
10:13 6.1 °F 2.9 °F 1030.7 in WNW 25.7 mph 25.7 mph 80 % 0.0 in 181.0 W/m2 CLR
10:18 6.1 °F 2.7 °F 1030.7 in NW 33.3 mph 33.3 mph 79 % 0.0 in 209.0 W/m2 CLR
10:23 6.1 °F 2.7 °F 1030.7 in NW 24.1 mph 24.1 mph 79 % 0.0 in 241.0 W/m2 CLR
10:28 6.1 °F 2.7 °F 1030.7 in NW 22.2 mph 22.2 mph 79 % 0.0 in 156.0 W/m2 CLR
10:33 6.7 °F 3.3 °F 1031.0 in NW 18.5 mph 18.5 mph 79 % 0.0 in 380.0 W/m2 CLR
10:38 6.7 °F 3.3 °F 1031.0 in NW 27.8 mph 27.8 mph 79 % 0.0 in 330.0 W/m2 CLR
10:43 6.7 °F 3.1 °F 1031.0 in NW 22.2 mph 22.2 mph 78 % 0.0 in 171.0 W/m2 CLR
10:48 6.7 °F 3.1 °F 1031.4 in NNW 25.9 mph 25.9 mph 78 % 0.0 in 214.0 W/m2 CLR
10:53 6.7 °F 3.1 °F 1031.4 in NW 13.0 mph 13.0 mph 78 % 0.0 in 346.0 W/m2 CLR
10:58 7.2 °F 3.7 °F 1031.4 in NNW 16.7 mph 16.7 mph 78 % 0.0 in 241.0 W/m2 CLR
11:03 7.2 °F 3.7 °F 1031.4 in NW 18.5 mph 18.5 mph 78 % 0.0 in 211.0 W/m2 CLR
11:08 7.2 °F 3.7 °F 1031.4 in NW 14.8 mph 14.8 mph 78 % 0.0 in 392.0 W/m2 CLR
11:13 7.2 °F 3.4 °F 1031.4 in NNW 22.2 mph 22.2 mph 77 % 0.0 in 462.0 W/m2 CLR
11:18 7.8 °F 4.0 °F 1031.4 in NW 20.4 mph 20.4 mph 77 % 0.0 in 378.0 W/m2 CLR
11:24 7.8 °F 4.0 °F 1031.4 in NW 22.2 mph 22.4 mph 77 % 0.0 in 464.0 W/m2 CLR
11:29 7.8 °F 3.8 °F 1031.4 in NNW 25.9 mph 25.9 mph 76 % 0.0 in 527.0 W/m2 CLR
11:34 8.3 °F 4.2 °F 1031.4 in NNW 17.7 mph 17.7 mph 75 % 0.0 in 292.0 W/m2 CLR
11:39 8.3 °F 4.2 °F 1031.7 in North 18.5 mph 18.5 mph 75 % 0.0 in 519.0 W/m2 CLR
11:44 8.3 °F 4.2 °F 1031.7 in NNW 14.8 mph 14.8 mph 75 % 0.0 in 383.0 W/m2 CLR
11:49 8.3 °F 3.8 °F 1031.7 in NNW 20.4 mph 20.4 mph 73 % 0.0 in 216.0 W/m2 CLR
11:54 8.3 °F 4.2 °F 1031.7 in NNW 17.7 mph 17.7 mph 75 % 0.0 in 345.0 W/m2 CLR
11:59 8.3 °F 4.2 °F 1032.1 in NNW 18.5 mph 18.5 mph 75 % 0.0 in 605.0 W/m2 CLR
12:04 8.9 °F 4.5 °F 1032.1 in WNW 14.8 mph 14.8 mph 74 % 0.0 in 311.0 W/m2 CLR
12:09 8.9 °F 4.5 °F 1032.1 in NNW 18.5 mph 18.5 mph 74 % 0.0 in 385.0 W/m2 CLR
12:14 9.4 °F 4.8 °F 1032.1 in NW 16.7 mph 16.7 mph 73 % 0.0 in 455.0 W/m2 CLR
12:19 8.9 °F 4.5 °F 1031.7 in NNW 18.5 mph 18.5 mph 74 % 0.0 in 476.0 W/m2 CLR
12:24 8.9 °F 4.5 °F 1031.7 in WNW 16.7 mph 16.7 mph 74 % 0.0 in 404.0 W/m2 CLR
12:29 8.9 °F 4.1 °F 1031.7 in NNW 20.4 mph 20.4 mph 72 % 0.0 in 241.0 W/m2 CLR
12:34 8.9 °F 3.9 °F 1031.7 in North 19.3 mph 19.3 mph 71 % 0.0 in 403.0 W/m2 CLR
12:39 9.4 °F 4.7 °F 1031.7 in North 18.5 mph 18.5 mph 72 % 0.0 in 538.0 W/m2 CLR
12:44 9.4 °F 4.8 °F 1031.7 in NW 19.3 mph 19.3 mph 73 % 0.0 in 476.0 W/m2 CLR
12:49 9.4 °F 4.2 °F 1032.1 in NNW 12.9 mph 12.9 mph 70 % 0.0 in 432.0 W/m2 CLR
12:54 9.4 °F 4.1 °F 1031.7 in NW 18.5 mph 18.5 mph 69 % 0.0 in 250.0 W/m2 CLR
12:59 9.4 °F 4.2 °F 1031.7 in Calm     70 % 0.0 in 269.0 W/m2 CLR
13:04 9.4 °F 4.1 °F 1031.7 in NNW 16.7 mph 16.7 mph 69 % 0.0 in 380.0 W/m2 CLR
13:09 10.0 °F 5.0 °F 1031.7 in NNW 18.5 mph 18.5 mph 71 % 0.0 in 540.0 W/m2 CLR
13:14 10.0 °F 4.8 °F 1031.7 in NNW 16.7 mph 16.7 mph 70 % 0.0 in 469.0 W/m2 CLR
13:19 10.0 °F 4.2 °F 1031.7 in NNW 16.7 mph 16.7 mph 67 % 0.0 in 323.0 W/m2 CLR
13:24 10.0 °F 3.9 °F 1031.7 in Calm     66 % 0.0 in 353.0 W/m2 CLR
13:29 10.0 °F 4.3 °F 1031.7 in NNW 20.4 mph 20.4 mph 68 % 0.0 in 439.0 W/m2 CLR
13:34 10.0 °F 4.2 °F 1031.4 in NW 18.5 mph 18.5 mph 67 % 0.0 in 575.0 W/m2 CLR
13:39 10.6 °F 4.0 °F 1031.4 in NW 14.8 mph 14.8 mph 64 % 0.0 in 578.0 W/m2 CLR
13:44 10.6 °F 4.7 °F 1031.0 in NW 18.5 mph 18.5 mph 67 % 0.0 in 526.0 W/m2 CLR
13:49 10.6 °F 4.2 °F 1031.4 in NW 14.8 mph 14.8 mph 65 % 0.0 in 445.0 W/m2 CLR
13:54 10.6 °F 4.9 °F 1031.0 in North 18.5 mph 18.5 mph 68 % 0.0 in 476.0 W/m2 CLR
13:59 10.6 °F 4.4 °F 1031.0 in NNW 22.2 mph 22.2 mph 66 % 0.0 in 490.0 W/m2 CLR
14:04 10.6 °F 4.2 °F 1031.0 in NW 14.5 mph 14.5 mph 65 % 0.0 in 515.0 W/m2 CLR
14:09 11.1 °F 5.0 °F 1031.0 in NW 13.0 mph 13.0 mph 66 % 0.0 in 619.0 W/m2 CLR
14:14 11.1 °F 5.0 °F 1031.0 in NW 18.5 mph 18.5 mph 66 % 0.0 in 376.0 W/m2 CLR
14:19 10.6 °F 4.0 °F 1031.0 in NNE 18.5 mph 18.5 mph 64 % 0.0 in 320.0 W/m2 CLR
14:24 10.6 °F 4.0 °F 1030.7 in NNW 20.4 mph 20.4 mph 64 % 0.0 in 279.0 W/m2 CLR
14:29 10.6 °F 4.2 °F 1031.0 in North 16.7 mph 16.7 mph 65 % 0.0 in 265.0 W/m2 CLR
14:34 11.1 °F 4.6 °F 1031.0 in NW 9.7 mph 9.7 mph 64 % 0.0 in 251.0 W/m2 CLR
14:39 10.6 °F 4.0 °F 1030.7 in NW 13.0 mph 13.0 mph 64 % 0.0 in 236.0 W/m2 CLR
14:44 10.6 °F 4.2 °F 1030.7 in NNW 13.0 mph 13.0 mph 65 % 0.0 in 216.0 W/m2 CLR
14:49 10.6 °F 3.8 °F 1031.0 in NNW 16.7 mph 16.7 mph 63 % 0.0 in 202.0 W/m2 CLR
14:54 10.6 °F 3.3 °F 1031.0 in North 11.1 mph 11.1 mph 61 % 0.0 in 178.0 W/m2 CLR
14:59 10.6 °F 3.8 °F 1031.0 in North 20.9 mph 20.9 mph 63 % 0.0 in 155.0 W/m2 CLR
15:04 10.6 °F 3.6 °F 1031.0 in NNW 16.7 mph 16.7 mph 62 % 0.0 in 127.0 W/m2 CLR
15:09 10.6 °F 3.6 °F 1031.0 in NNW 18.5 mph 18.5 mph 62 % 0.0 in 127.0 W/m2 CLR
15:14 10.6 °F 3.6 °F 1031.4 in NNW 18.5 mph 18.5 mph 62 % 0.0 in 128.0 W/m2 CLR
15:19 10.0 °F 3.1 °F 1031.4 in NNW 14.8 mph 14.8 mph 62 % 0.0 in 128.0 W/m2 CLR
15:24 10.0 °F 3.3 °F 1031.4 in NNW 13.0 mph 13.0 mph 63 % 0.0 in 123.0 W/m2 CLR
15:29 10.0 °F 3.1 °F 1031.4 in NNW 14.8 mph 14.8 mph 62 % 0.0 in 121.0 W/m2 CLR
15:34 10.0 °F 3.1 °F 1031.4 in NNW 12.9 mph 12.9 mph 62 % 0.0 in 132.0 W/m2 CLR
15:39 10.0 °F 3.1 °F 1031.4 in NNW 18.5 mph 18.5 mph 62 % 0.0 in 151.0 W/m2 CLR
15:44 10.6 °F 3.3 °F 1031.7 in NNW 17.7 mph 17.7 mph 61 % 0.0 in 149.0 W/m2 CLR
15:49 10.6 °F 3.1 °F 1031.7 in North 16.7 mph 16.7 mph 60 % 0.0 in 149.0 W/m2 CLR
15:54 10.6 °F 3.6 °F 1031.7 in North 11.1 mph 11.1 mph 62 % 0.0 in 141.0 W/m2 CLR
15:59 10.6 °F 3.3 °F 1031.7 in NNW 11.1 mph 11.1 mph 61 % 0.0 in 135.0 W/m2 CLR
16:04 10.6 °F 3.6 °F 1032.1 in NNW 13.0 mph 13.0 mph 62 % 0.0 in 139.0 W/m2 CLR
16:09 10.6 °F 3.6 °F 1031.7 in Calm     62 % 0.0 in 146.0 W/m2 CLR
16:14 10.6 °F 2.9 °F 1031.7 in North 14.8 mph 14.8 mph 59 % 0.0 in 232.0 W/m2 CLR
16:19 10.6 °F 3.3 °F 1031.7 in NNW 14.8 mph 14.8 mph 61 % 0.0 in 148.0 W/m2 CLR
16:24 10.6 °F 3.1 °F 1031.7 in NNW 13.0 mph 13.0 mph 60 % 0.0 in 197.0 W/m2 CLR
16:29 10.6 °F 2.9 °F 1031.7 in NNW 14.8 mph 14.8 mph 59 % 0.0 in 223.0 W/m2 CLR
16:34 10.6 °F 2.4 °F 1032.1 in NNW 13.0 mph 13.0 mph 57 % 0.0 in 216.0 W/m2 CLR
16:39 10.6 °F 2.4 °F 1031.7 in NNW 14.8 mph 14.8 mph 57 % 0.0 in 155.0 W/m2 CLR
16:44 10.0 °F 2.1 °F 1031.7 in NW 14.8 mph 14.8 mph 58 % 0.0 in 183.0 W/m2 CLR
16:49 10.0 °F 2.6 °F 1032.1 in NNW 11.1 mph 11.1 mph 60 % 0.0 in 74.0 W/m2 CLR
16:54 9.4 °F 2.1 °F 1032.1 in NNW 11.1 mph 11.1 mph 60 % 0.0 in 70.0 W/m2 FEW
16:59 9.4 °F 2.1 °F 1032.1 in NW 9.7 mph 9.7 mph 60 % 0.0 in 86.0 W/m2 FEW
17:04 9.4 °F 2.3 °F 1032.4 in NNW 5.6 mph 5.6 mph 61 % 0.0 in 40.0 W/m2 CLR
17:10 8.9 °F 1.8 °F 1032.4 in NW 1.9 mph 1.9 mph 61 % 0.0 in 42.0 W/m2 SCT
17:14 8.9 °F 1.6 °F 1032.4 in NW 1.9 mph   60 % 0.0 in 53.0 W/m2 SCT
17:19 8.9 °F 2.0 °F 1032.4 in Calm     62 % 0.0 in 65.0 W/m2 SCT
17:25 8.9 °F 2.0 °F 1032.4 in Calm     62 % 0.0 in 56.0 W/m2 SCT
17:26 8.9 °F 2.0 °F 1032.4 in Calm     62 % 0.0 in 53.0 W/m2 SCT
17:36 8.9 °F 2.0 °F 1032.7 in Calm     62 % 0.0 in 32.0 W/m2 BKN
17:41 8.9 °F 2.0 °F 1032.7 in NW 1.9 mph   62 % 0.0 in 25.0 W/m2 BKN
17:46 8.9 °F 2.2 °F 1032.7 in Calm     63 % 0.0 in 19.0 W/m2 BKN
17:51 8.3 °F 2.1 °F 1032.7 in Calm     65 % 0.0 in 14.0 W/m2 BKN
17:56 8.3 °F 2.6 °F 1032.7 in Calm     67 % 0.0 in 9.0 W/m2 BKN
18:01 7.8 °F 2.2 °F 1032.7 in Calm     68 % 0.0 in 5.0 W/m2 BKN
18:06 7.8 °F 2.1 °F 1032.7 in WNW 3.7 mph 3.7 mph 67 % 0.0 in 5.0 W/m2 OVC
18:11 7.2 °F 1.5 °F 1033.1 in Calm     67 % 0.0 in 0.0 W/m2 OVC
18:16 7.2 °F 1.7 °F 1033.1 in Calm     68 % 0.0 in 0.0 W/m2 OVC
18:21 7.2 °F 1.9 °F 1033.1 in Calm     69 % 0.0 in 0.0 W/m2 CLR
18:26 7.2 °F 2.1 °F 1033.1 in WNW 1.9 mph   70 % 0.0 in 0.0 W/m2 CLR
18:31 7.2 °F 2.1 °F 1033.1 in Calm   0.2 mph 70 % 0.0 in 0.0 W/m2 CLR
18:36 7.2 °F 2.1 °F 1033.4 in Calm     70 % 0.0 in 0.0 W/m2 CLR
18:41 7.2 °F 2.7 °F 1033.4 in Calm     73 % 0.0 in 0.0 W/m2 CLR
18:46 7.2 °F 2.7 °F 1033.4 in Calm     73 % 0.0 in 0.0 W/m2 CLR
18:51 7.2 °F 2.7 °F 1033.7 in Calm     73 % 0.0 in 0.0 W/m2 CLR
18:56 7.2 °F 2.7 °F 1033.7 in Calm     73 % 0.0 in 0.0 W/m2 CLR
18:58 7.2 °F 2.7 °F 1033.7 in Calm     73 % 0.0 in 0.0 W/m2 CLR
19:03 6.7 °F 2.2 °F 1033.7 in Calm     73 % 0.0 in 0.0 W/m2 CLR
19:08 6.7 °F 2.2 °F 1034.1 in Calm     73 % 0.0 in 0.0 W/m2 CLR
19:13 7.2 °F 2.7 °F 1034.4 in Calm     73 % 0.0 in 0.0 W/m2 CLR
19:18 7.2 °F 2.5 °F 1034.1 in Calm     72 % 0.0 in 0.0 W/m2 CLR
19:23 7.2 °F 2.3 °F 1034.4 in Calm     71 % 0.0 in 0.0 W/m2 CLR
19:28 7.2 °F 2.1 °F 1034.4 in Calm     70 % 0.0 in 0.0 W/m2 CLR
19:33 7.2 °F 2.3 °F 1034.4 in NNW 1.9 mph 1.9 mph 71 % 0.0 in 0.0 W/m2 CLR
19:38 6.7 °F 1.6 °F 1034.8 in NNW 11.1 mph 11.1 mph 70 % 0.0 in 0.0 W/m2 CLR
19:43 7.2 °F 1.9 °F 1034.8 in NNW 13.0 mph 13.0 mph 69 % 0.0 in 0.0 W/m2 CLR
19:48 7.2 °F 1.9 °F 1034.8 in NNW 19.3 mph 19.3 mph 69 % 0.0 in 0.0 W/m2 CLR
19:53 7.8 °F 2.4 °F 1034.8 in NNW 20.4 mph 20.4 mph 69 % 0.0 in 0.0 W/m2 CLR
19:58 7.8 °F 2.4 °F 1034.8 in NNW 24.1 mph 24.1 mph 69 % 0.0 in 0.0 W/m2 CLR
20:03 7.8 °F 2.7 °F 1034.8 in NNW 20.9 mph 20.9 mph 70 % 0.0 in 0.0 W/m2 CLR
20:08 7.8 °F 2.4 °F 1035.1 in NW 25.9 mph 25.9 mph 69 % 0.0 in 0.0 W/m2 CLR
20:13 7.8 °F 2.7 °F 1035.1 in NNW 24.1 mph 24.1 mph 70 % 0.0 in 0.0 W/m2 CLR
20:18 7.8 °F 2.8 °F 1035.1 in NNW 25.9 mph 25.9 mph 71 % 0.0 in 0.0 W/m2 CLR
20:23 7.8 °F 2.8 °F 1035.4 in NNW 20.4 mph 20.4 mph 71 % 0.0 in 0.0 W/m2 CLR
20:28 7.8 °F 2.8 °F 1035.4 in North 24.1 mph 24.1 mph 71 % 0.0 in 0.0 W/m2 CLR
20:29 7.2 °F 2.3 °F 1035.4 in NNW 19.3 mph 19.3 mph 71 % 0.0 in 0.0 W/m2 CLR
20:34 7.2 °F 2.1 °F 1035.4 in North 1.9 mph 1.9 mph 70 % 0.0 in 0.0 W/m2 CLR
20:39 7.8 °F 2.8 °F 1035.4 in NW 1.9 mph 1.9 mph 71 % 0.0 in 0.0 W/m2 CLR
20:44 7.8 °F 2.8 °F 1035.4 in Calm     71 % 0.0 in 0.0 W/m2 CLR
20:49 7.8 °F 2.8 °F 1035.4 in NNW 14.8 mph 14.8 mph 71 % 0.0 in 0.0 W/m2 CLR
20:54 7.2 °F 2.3 °F 1035.4 in NW 13.0 mph 13.0 mph 71 % 0.0 in 0.0 W/m2 CLR
20:59 7.2 °F 2.5 °F 1035.8 in WNW 1.9 mph 1.9 mph 72 % 0.0 in 0.0 W/m2 CLR
21:04 7.2 °F 2.5 °F 1035.8 in NNW 1.9 mph   72 % 0.0 in 0.0 W/m2 CLR
21:09 7.2 °F 2.7 °F 1035.8 in NW 1.6 mph 1.6 mph 73 % 0.0 in 0.0 W/m2 CLR
21:14 7.2 °F 2.7 °F 1035.8 in WNW 5.6 mph 5.6 mph 73 % 0.0 in 0.0 W/m2 CLR
21:19 7.2 °F 2.7 °F 1035.8 in West 3.7 mph 3.7 mph 73 % 0.0 in 0.0 W/m2 CLR
21:24 7.2 °F 2.7 °F 1035.8 in NW 7.4 mph 7.4 mph 73 % 0.0 in 0.0 W/m2 CLR
21:29 7.2 °F 2.7 °F 1035.8 in WNW 9.7 mph 9.7 mph 73 % 0.0 in 0.0 W/m2 CLR
21:34 7.2 °F 2.7 °F 1036.1 in WNW 4.8 mph 4.8 mph 73 % 0.0 in 0.0 W/m2 CLR
21:39 7.2 °F 2.9 °F 1036.1 in NW 5.6 mph 5.6 mph 74 % 0.0 in 0.0 W/m2 CLR
21:44 7.2 °F 2.9 °F 1036.1 in WNW 1.9 mph   74 % 0.0 in 0.0 W/m2 CLR
21:49 7.2 °F 2.9 °F 1036.1 in Calm     74 % 0.0 in 0.0 W/m2 CLR
21:54 7.2 °F 2.9 °F 1036.1 in WNW 5.6 mph 5.6 mph 74 % 0.0 in 0.0 W/m2 CLR
21:59 7.2 °F 2.9 °F 1036.1 in Calm     74 % 0.0 in 0.0 W/m2 CLR
22:04 7.2 °F 3.1 °F 1036.1 in Calm     75 % 0.0 in 0.0 W/m2 CLR
22:09 6.7 °F 2.3 °F 1036.5 in NW 3.7 mph 3.7 mph 74 % 0.0 in 0.0 W/m2 CLR
22:14 6.7 °F 2.3 °F 1036.5 in Calm     74 % 0.0 in 0.0 W/m2 CLR
22:19 6.7 °F 2.6 °F 1036.8 in Calm     75 % 0.0 in 0.0 W/m2 CLR
22:24 6.7 °F 2.6 °F 1036.8 in Calm     75 % 0.0 in 0.0 W/m2 CLR
22:29 6.7 °F 2.6 °F 1036.8 in Calm     75 % 0.0 in 0.0 W/m2 CLR
22:34 6.1 °F 2.0 °F 1036.8 in Calm     75 % 0.0 in 0.0 W/m2 CLR
22:39 6.1 °F 2.2 °F 1036.8 in Calm     76 % 0.0 in 0.0 W/m2 CLR
22:44 6.1 °F 2.2 °F 1037.1 in Calm     76 % 0.0 in 0.0 W/m2 CLR
22:49 6.1 °F 2.4 °F 1037.1 in Calm     77 % 0.0 in 0.0 W/m2 CLR
22:54 6.1 °F 2.4 °F 1037.1 in WNW 1.9 mph 1.9 mph 77 % 0.0 in 0.0 W/m2 CLR
22:59 6.7 °F 3.1 °F 1037.1 in Calm     78 % 0.0 in 0.0 W/m2 CLR
23:04 6.7 °F 3.1 °F 1037.1 in Calm     78 % 0.0 in 0.0 W/m2 CLR
23:09 6.7 °F 3.1 °F 1037.1 in Calm     78 % 0.0 in 0.0 W/m2 CLR
23:14 6.7 °F 3.3 °F 1037.1 in Calm     79 % 0.0 in 0.0 W/m2 CLR
23:19 6.7 °F 3.3 °F 1037.1 in WNW 1.9 mph   79 % 0.0 in 0.0 W/m2 CLR
23:24 6.7 °F 3.3 °F 1037.1 in Calm     79 % 0.0 in 0.0 W/m2 CLR
23:29 6.7 °F 3.3 °F 1037.1 in Calm     79 % 0.0 in 0.0 W/m2 CLR
23:34 6.7 °F 3.3 °F 1037.1 in Calm     79 % 0.0 in 0.0 W/m2 CLR
23:39 6.7 °F 3.3 °F 1037.1 in Calm     79 % 0.0 in 0.0 W/m2 CLR
23:44 6.7 °F 3.4 °F 1037.1 in WNW 5.6 mph 5.6 mph 80 % 0.0 in 0.0 W/m2 CLR
23:49 6.1 °F 2.7 °F 1037.1 in WNW 5.6 mph 5.6 mph 79 % 0.0 in 0.0 W/m2 CLR
23:54 6.1 °F 2.7 °F 1037.1 in WNW 3.7 mph 3.7 mph 79 % 0.0 in 0.0 W/m2 CLR
23:59 6.1 °F 2.7 °F 1037.5 in Calm     79 % 0.0 in 0.0 W/m2 CLR
Lo Temps de Massalio
Compliments of Weather Underground - 1.25 mb